sensor_id;sensor_type;location;lat;lon;timestamp;temperature;humidity
6538;DHT22;3302;52.508;13.454;2023-02-28T00:00:29;2.50;86.50
6538;DHT22;3302;52.508;13.454;2023-02-28T00:02:55;2.60;86.20
6538;DHT22;3302;52.508;13.454;2023-02-28T00:05:23;2.60;86.30
6538;DHT22;3302;52.508;13.454;2023-02-28T00:07:49;2.50;86.20
6538;DHT22;3302;52.508;13.454;2023-02-28T00:10:24;2.50;86.60
6538;DHT22;3302;52.508;13.454;2023-02-28T00:12:53;2.40;87.00
6538;DHT22;3302;52.508;13.454;2023-02-28T00:15:19;2.40;86.50
6538;DHT22;3302;52.508;13.454;2023-02-28T00:17:45;2.50;86.70
6538;DHT22;3302;52.508;13.454;2023-02-28T00:20:13;2.50;86.20
6538;DHT22;3302;52.508;13.454;2023-02-28T00:22:47;2.60;86.20
6538;DHT22;3302;52.508;13.454;2023-02-28T00:25:15;2.60;86.30
6538;DHT22;3302;52.508;13.454;2023-02-28T00:27:42;2.50;86.10
6538;DHT22;3302;52.508;13.454;2023-02-28T00:30:12;2.50;87.20
6538;DHT22;3302;52.508;13.454;2023-02-28T00:32:38;2.40;86.50
6538;DHT22;3302;52.508;13.454;2023-02-28T00:35:04;2.50;86.70
6538;DHT22;3302;52.508;13.454;2023-02-28T00:37:30;2.50;86.70
6538;DHT22;3302;52.508;13.454;2023-02-28T00:39:56;2.40;87.40
6538;DHT22;3302;52.508;13.454;2023-02-28T00:42:23;2.30;87.00
6538;DHT22;3302;52.508;13.454;2023-02-28T00:44:49;2.30;87.00
6538;DHT22;3302;52.508;13.454;2023-02-28T00:47:14;2.40;87.20
6538;DHT22;3302;52.508;13.454;2023-02-28T00:49:40;2.40;87.30
6538;DHT22;3302;52.508;13.454;2023-02-28T00:52:06;2.30;86.80
6538;DHT22;3302;52.508;13.454;2023-02-28T00:54:32;2.30;87.00
6538;DHT22;3302;52.508;13.454;2023-02-28T00:56:58;2.30;87.00
6538;DHT22;3302;52.508;13.454;2023-02-28T00:59:24;2.50;87.70
6538;DHT22;3302;52.508;13.454;2023-02-28T01:01:50;2.40;86.80
6538;DHT22;3302;52.508;13.454;2023-02-28T01:04:16;2.40;87.50
6538;DHT22;3302;52.508;13.454;2023-02-28T01:06:42;2.40;87.30
6538;DHT22;3302;52.508;13.454;2023-02-28T01:09:08;2.50;87.70
6538;DHT22;3302;52.508;13.454;2023-02-28T01:11:34;2.30;87.20
6538;DHT22;3302;52.508;13.454;2023-02-28T01:14:01;2.30;87.60
6538;DHT22;3302;52.508;13.454;2023-02-28T01:16:27;2.10;88.10
6538;DHT22;3302;52.508;13.454;2023-02-28T01:18:54;2.10;88.70
6538;DHT22;3302;52.508;13.454;2023-02-28T01:21:20;2.00;89.30
6538;DHT22;3302;52.508;13.454;2023-02-28T01:23:47;2.10;89.50
6538;DHT22;3302;52.508;13.454;2023-02-28T01:26:21;2.10;89.50
6538;DHT22;3302;52.508;13.454;2023-02-28T01:28:48;2.20;88.80
6538;DHT22;3302;52.508;13.454;2023-02-28T01:31:16;2.20;88.80
6538;DHT22;3302;52.508;13.454;2023-02-28T01:33:44;2.30;89.10
6538;DHT22;3302;52.508;13.454;2023-02-28T01:36:13;2.20;88.50
6538;DHT22;3302;52.508;13.454;2023-02-28T01:38:40;2.10;89.00
6538;DHT22;3302;52.508;13.454;2023-02-28T01:41:06;2.00;89.60
6538;DHT22;3302;52.508;13.454;2023-02-28T01:46:11;1.90;90.20
6538;DHT22;3302;52.508;13.454;2023-02-28T01:48:43;2.00;90.10
6538;DHT22;3302;52.508;13.454;2023-02-28T01:51:15;2.00;90.20
6538;DHT22;3302;52.508;13.454;2023-02-28T01:53:45;1.80;90.30
6538;DHT22;3302;52.508;13.454;2023-02-28T01:56:19;1.70;90.50
6538;DHT22;3302;52.508;13.454;2023-02-28T01:58:49;1.70;90.50
6538;DHT22;3302;52.508;13.454;2023-02-28T02:01:16;1.60;90.90
6538;DHT22;3302;52.508;13.454;2023-02-28T02:03:51;1.60;90.90
6538;DHT22;3302;52.508;13.454;2023-02-28T02:06:28;1.60;91.00
6538;DHT22;3302;52.508;13.454;2023-02-28T02:08:54;1.70;91.00
6538;DHT22;3302;52.508;13.454;2023-02-28T02:11:22;1.70;90.80
6538;DHT22;3302;52.508;13.454;2023-02-28T02:19:23;1.60;91.00
6538;DHT22;3302;52.508;13.454;2023-02-28T02:30:18;1.50;91.30
6538;DHT22;3302;52.508;13.454;2023-02-28T02:32:59;1.40;91.80
6538;DHT22;3302;52.508;13.454;2023-02-28T02:40:46;1.50;91.70
6538;DHT22;3302;52.508;13.454;2023-02-28T02:43:19;1.60;91.70
6538;DHT22;3302;52.508;13.454;2023-02-28T02:45:51;1.50;91.80
6538;DHT22;3302;52.508;13.454;2023-02-28T02:48:20;1.40;92.00
6538;DHT22;3302;52.508;13.454;2023-02-28T02:50:52;1.40;92.10
6538;DHT22;3302;52.508;13.454;2023-02-28T02:53:24;1.40;92.10
6538;DHT22;3302;52.508;13.454;2023-02-28T02:55:53;1.40;92.20
6538;DHT22;3302;52.508;13.454;2023-02-28T02:58:27;1.40;92.40
6538;DHT22;3302;52.508;13.454;2023-02-28T03:00:57;1.40;92.40
6538;DHT22;3302;52.508;13.454;2023-02-28T03:03:25;1.40;92.50
6538;DHT22;3302;52.508;13.454;2023-02-28T03:05:57;1.30;92.30
6538;DHT22;3302;52.508;13.454;2023-02-28T03:08:23;1.20;92.50
6538;DHT22;3302;52.508;13.454;2023-02-28T03:11:00;1.10;92.80
6538;DHT22;3302;52.508;13.454;2023-02-28T03:16:36;1.20;92.40
6538;DHT22;3302;52.508;13.454;2023-02-28T03:22:09;1.10;92.60
6538;DHT22;3302;52.508;13.454;2023-02-28T03:33:32;1.00;93.00
6538;DHT22;3302;52.508;13.454;2023-02-28T03:36:17;1.00;93.10
6538;DHT22;3302;52.508;13.454;2023-02-28T03:38:49;0.90;93.10
6538;DHT22;3302;52.508;13.454;2023-02-28T03:41:45;0.90;93.30
6538;DHT22;3302;52.508;13.454;2023-02-28T03:47:29;0.80;93.50
6538;DHT22;3302;52.508;13.454;2023-02-28T03:52:35;0.80;93.70
6538;DHT22;3302;52.508;13.454;2023-02-28T03:55:06;0.80;94.10
6538;DHT22;3302;52.508;13.454;2023-02-28T03:57:49;0.80;93.80
6538;DHT22;3302;52.508;13.454;2023-02-28T04:00:24;0.80;93.80
6538;DHT22;3302;52.508;13.454;2023-02-28T04:02:54;0.70;94.20
6538;DHT22;3302;52.508;13.454;2023-02-28T04:05:21;0.70;93.90
6538;DHT22;3302;52.508;13.454;2023-02-28T04:07:47;0.80;93.90
6538;DHT22;3302;52.508;13.454;2023-02-28T04:10:15;0.70;93.80
6538;DHT22;3302;52.508;13.454;2023-02-28T04:12:41;0.80;93.90
6538;DHT22;3302;52.508;13.454;2023-02-28T04:15:07;0.80;93.60
6538;DHT22;3302;52.508;13.454;2023-02-28T04:17:33;0.80;93.50
6538;DHT22;3302;52.508;13.454;2023-02-28T04:19:59;0.70;93.60
6538;DHT22;3302;52.508;13.454;2023-02-28T04:22:25;0.80;93.60
6538;DHT22;3302;52.508;13.454;2023-02-28T04:24:51;0.70;93.50
6538;DHT22;3302;52.508;13.454;2023-02-28T04:27:19;0.70;93.80
6538;DHT22;3302;52.508;13.454;2023-02-28T04:29:45;0.70;93.80
6538;DHT22;3302;52.508;13.454;2023-02-28T04:32:11;0.60;94.00
6538;DHT22;3302;52.508;13.454;2023-02-28T04:34:37;0.60;94.10
6538;DHT22;3302;52.508;13.454;2023-02-28T04:37:03;0.70;94.40
6538;DHT22;3302;52.508;13.454;2023-02-28T04:39:29;0.70;94.10
6538;DHT22;3302;52.508;13.454;2023-02-28T04:41:55;0.70;94.10
6538;DHT22;3302;52.508;13.454;2023-02-28T04:44:22;0.70;94.20
6538;DHT22;3302;52.508;13.454;2023-02-28T04:46:48;0.60;94.10
6538;DHT22;3302;52.508;13.454;2023-02-28T04:49:14;0.60;94.30
6538;DHT22;3302;52.508;13.454;2023-02-28T04:51:41;0.60;94.30
6538;DHT22;3302;52.508;13.454;2023-02-28T04:54:07;0.50;94.40
6538;DHT22;3302;52.508;13.454;2023-02-28T04:56:33;0.50;94.50
6538;DHT22;3302;52.508;13.454;2023-02-28T04:58:59;0.50;94.50
6538;DHT22;3302;52.508;13.454;2023-02-28T05:01:28;0.50;94.70
6538;DHT22;3302;52.508;13.454;2023-02-28T05:03:56;0.40;94.60
6538;DHT22;3302;52.508;13.454;2023-02-28T05:06:24;0.40;94.80
6538;DHT22;3302;52.508;13.454;2023-02-28T05:08:50;0.30;94.70
6538;DHT22;3302;52.508;13.454;2023-02-28T05:13:44;0.40;94.80
6538;DHT22;3302;52.508;13.454;2023-02-28T05:16:10;0.30;94.70
6538;DHT22;3302;52.508;13.454;2023-02-28T05:18:36;0.30;95.00
6538;DHT22;3302;52.508;13.454;2023-02-28T05:21:02;0.30;95.10
6538;DHT22;3302;52.508;13.454;2023-02-28T05:23:28;0.30;95.10
6538;DHT22;3302;52.508;13.454;2023-02-28T05:25:53;0.20;95.20
6538;DHT22;3302;52.508;13.454;2023-02-28T05:28:20;0.20;95.20
6538;DHT22;3302;52.508;13.454;2023-02-28T05:30:46;0.20;95.20
6538;DHT22;3302;52.508;13.454;2023-02-28T05:33:12;0.20;95.30
6538;DHT22;3302;52.508;13.454;2023-02-28T05:35:39;0.20;95.40
6538;DHT22;3302;52.508;13.454;2023-02-28T05:38:05;0.20;95.40
6538;DHT22;3302;52.508;13.454;2023-02-28T05:40:31;0.20;95.40
6538;DHT22;3302;52.508;13.454;2023-02-28T05:42:57;0.20;95.40
6538;DHT22;3302;52.508;13.454;2023-02-28T05:45:23;0.20;95.20
6538;DHT22;3302;52.508;13.454;2023-02-28T05:47:48;0.20;95.20
6538;DHT22;3302;52.508;13.454;2023-02-28T05:50:14;0.30;95.10
6538;DHT22;3302;52.508;13.454;2023-02-28T05:52:40;0.30;95.10
6538;DHT22;3302;52.508;13.454;2023-02-28T05:55:06;0.20;95.20
6538;DHT22;3302;52.508;13.454;2023-02-28T05:57:32;0.20;95.00
6538;DHT22;3302;52.508;13.454;2023-02-28T05:59:58;0.30;94.90
6538;DHT22;3302;52.508;13.454;2023-02-28T06:02:24;0.30;94.90
6538;DHT22;3302;52.508;13.454;2023-02-28T06:04:49;0.40;95.10
6538;DHT22;3302;52.508;13.454;2023-02-28T06:07:15;0.30;94.90
6538;DHT22;3302;52.508;13.454;2023-02-28T06:09:43;0.30;95.00
6538;DHT22;3302;52.508;13.454;2023-02-28T06:12:10;0.30;95.60
6538;DHT22;3302;52.508;13.454;2023-02-28T06:14:36;0.30;95.30
6538;DHT22;3302;52.508;13.454;2023-02-28T06:17:02;0.20;95.40
6538;DHT22;3302;52.508;13.454;2023-02-28T06:19:28;0.20;95.90
6538;DHT22;3302;52.508;13.454;2023-02-28T06:21:56;0.30;95.30
6538;DHT22;3302;52.508;13.454;2023-02-28T06:24:24;0.30;95.10
6538;DHT22;3302;52.508;13.454;2023-02-28T06:26:50;0.30;95.00
6538;DHT22;3302;52.508;13.454;2023-02-28T06:29:16;0.20;95.00
6538;DHT22;3302;52.508;13.454;2023-02-28T06:31:46;0.20;95.30
6538;DHT22;3302;52.508;13.454;2023-02-28T06:34:13;0.20;95.60
6538;DHT22;3302;52.508;13.454;2023-02-28T06:36:40;0.20;95.20
6538;DHT22;3302;52.508;13.454;2023-02-28T06:39:07;0.40;94.80
6538;DHT22;3302;52.508;13.454;2023-02-28T06:41:33;0.40;94.80
6538;DHT22;3302;52.508;13.454;2023-02-28T06:44:22;0.40;94.20
6538;DHT22;3302;52.508;13.454;2023-02-28T06:46:48;0.50;94.70
6538;DHT22;3302;52.508;13.454;2023-02-28T06:49:14;0.60;93.90
6538;DHT22;3302;52.508;13.454;2023-02-28T06:51:42;0.50;94.10
6538;DHT22;3302;52.508;13.454;2023-02-28T06:54:12;0.60;94.70
6538;DHT22;3302;52.508;13.454;2023-02-28T06:56:39;0.60;94.20
6538;DHT22;3302;52.508;13.454;2023-02-28T06:59:05;0.60;93.80
6538;DHT22;3302;52.508;13.454;2023-02-28T07:01:31;0.60;93.90
6538;DHT22;3302;52.508;13.454;2023-02-28T07:03:59;0.50;93.50
6538;DHT22;3302;52.508;13.454;2023-02-28T07:06:25;0.60;93.10
6538;DHT22;3302;52.508;13.454;2023-02-28T07:08:52;0.70;92.80
6538;DHT22;3302;52.508;13.454;2023-02-28T07:11:19;0.70;92.70
6538;DHT22;3302;52.508;13.454;2023-02-28T07:13:46;0.90;93.00
6538;DHT22;3302;52.508;13.454;2023-02-28T07:16:14;0.90;92.90
6538;DHT22;3302;52.508;13.454;2023-02-28T07:18:39;1.00;93.40
6538;DHT22;3302;52.508;13.454;2023-02-28T07:21:08;1.10;92.80
6538;DHT22;3302;52.508;13.454;2023-02-28T07:23:35;1.00;92.40
6538;DHT22;3302;52.508;13.454;2023-02-28T07:26:04;1.00;92.20
6538;DHT22;3302;52.508;13.454;2023-02-28T07:28:30;1.00;91.10
6538;DHT22;3302;52.508;13.454;2023-02-28T07:30:56;1.10;90.20
6538;DHT22;3302;52.508;13.454;2023-02-28T07:33:22;1.20;88.60
6538;DHT22;3302;52.508;13.454;2023-02-28T07:35:49;1.50;87.10
6538;DHT22;3302;52.508;13.454;2023-02-28T07:38:15;1.60;87.50
6538;DHT22;3302;52.508;13.454;2023-02-28T07:40:41;1.60;86.00
6538;DHT22;3302;52.508;13.454;2023-02-28T07:43:07;1.70;83.70
6538;DHT22;3302;52.508;13.454;2023-02-28T07:45:32;1.70;81.70
6538;DHT22;3302;52.508;13.454;2023-02-28T07:48:00;1.80;81.80
6538;DHT22;3302;52.508;13.454;2023-02-28T07:50:26;1.80;80.90
6538;DHT22;3302;52.508;13.454;2023-02-28T07:52:57;1.90;78.60
6538;DHT22;3302;52.508;13.454;2023-02-28T07:55:23;1.90;79.70
6538;DHT22;3302;52.508;13.454;2023-02-28T07:57:49;2.10;79.40
6538;DHT22;3302;52.508;13.454;2023-02-28T08:00:15;2.10;75.30
6538;DHT22;3302;52.508;13.454;2023-02-28T08:02:41;2.00;72.60
6538;DHT22;3302;52.508;13.454;2023-02-28T08:05:07;2.10;73.60
6538;DHT22;3302;52.508;13.454;2023-02-28T08:07:33;2.20;72.70
6538;DHT22;3302;52.508;13.454;2023-02-28T08:09:59;2.30;70.70
6538;DHT22;3302;52.508;13.454;2023-02-28T08:12:25;2.50;70.50
6538;DHT22;3302;52.508;13.454;2023-02-28T08:14:51;2.60;67.80
6538;DHT22;3302;52.508;13.454;2023-02-28T08:17:16;2.60;65.40
6538;DHT22;3302;52.508;13.454;2023-02-28T08:19:45;2.70;65.90
6538;DHT22;3302;52.508;13.454;2023-02-28T08:22:11;2.70;63.80
6538;DHT22;3302;52.508;13.454;2023-02-28T08:24:37;2.70;64.20
6538;DHT22;3302;52.508;13.454;2023-02-28T08:27:03;2.80;65.00
6538;DHT22;3302;52.508;13.454;2023-02-28T08:29:29;2.80;62.00
6538;DHT22;3302;52.508;13.454;2023-02-28T08:31:55;2.80;60.70
6538;DHT22;3302;52.508;13.454;2023-02-28T08:34:22;2.70;61.90
6538;DHT22;3302;52.508;13.454;2023-02-28T08:36:48;2.70;62.90
6538;DHT22;3302;52.508;13.454;2023-02-28T08:39:14;2.70;63.10
6538;DHT22;3302;52.508;13.454;2023-02-28T08:41:41;2.80;62.80
6538;DHT22;3302;52.508;13.454;2023-02-28T08:44:07;2.80;63.40
6538;DHT22;3302;52.508;13.454;2023-02-28T08:46:33;3.00;61.70
6538;DHT22;3302;52.508;13.454;2023-02-28T08:48:59;2.90;59.00
6538;DHT22;3302;52.508;13.454;2023-02-28T08:51:27;2.90;60.30
6538;DHT22;3302;52.508;13.454;2023-02-28T08:54:00;3.10;59.70
6538;DHT22;3302;52.508;13.454;2023-02-28T08:56:27;3.10;58.50
6538;DHT22;3302;52.508;13.454;2023-02-28T08:58:55;3.20;58.40
6538;DHT22;3302;52.508;13.454;2023-02-28T09:01:23;3.20;56.60
6538;DHT22;3302;52.508;13.454;2023-02-28T09:03:51;3.20;54.90
6538;DHT22;3302;52.508;13.454;2023-02-28T09:06:19;3.10;56.10
6538;DHT22;3302;52.508;13.454;2023-02-28T09:08:45;3.30;57.10
6538;DHT22;3302;52.508;13.454;2023-02-28T09:11:12;3.30;56.40
6538;DHT22;3302;52.508;13.454;2023-02-28T09:13:38;3.30;55.10
6538;DHT22;3302;52.508;13.454;2023-02-28T09:16:07;3.50;57.40
6538;DHT22;3302;52.508;13.454;2023-02-28T09:18:36;3.50;56.00
6538;DHT22;3302;52.508;13.454;2023-02-28T09:21:04;3.60;55.90
6538;DHT22;3302;52.508;13.454;2023-02-28T09:23:30;3.70;55.90
6538;DHT22;3302;52.508;13.454;2023-02-28T09:25:56;3.70;54.50
6538;DHT22;3302;52.508;13.454;2023-02-28T09:28:22;3.80;53.90
6538;DHT22;3302;52.508;13.454;2023-02-28T09:30:50;3.80;54.30
6538;DHT22;3302;52.508;13.454;2023-02-28T09:33:17;3.80;53.50
6538;DHT22;3302;52.508;13.454;2023-02-28T09:35:46;3.70;53.70
6538;DHT22;3302;52.508;13.454;2023-02-28T09:38:12;3.80;54.20
6538;DHT22;3302;52.508;13.454;2023-02-28T09:40:50;4.00;53.10
6538;DHT22;3302;52.508;13.454;2023-02-28T09:43:18;4.00;52.80
6538;DHT22;3302;52.508;13.454;2023-02-28T09:46:40;4.10;52.70
6538;DHT22;3302;52.508;13.454;2023-02-28T09:48:45;4.00;52.60
6538;DHT22;3302;52.508;13.454;2023-02-28T09:51:27;3.80;53.20
6538;DHT22;3302;52.508;13.454;2023-02-28T09:53:54;4.10;53.80
6538;DHT22;3302;52.508;13.454;2023-02-28T09:56:24;4.30;53.80
6538;DHT22;3302;52.508;13.454;2023-02-28T09:58:56;4.40;52.90
6538;DHT22;3302;52.508;13.454;2023-02-28T10:01:31;4.50;52.40
6538;DHT22;3302;52.508;13.454;2023-02-28T10:04:25;4.40;52.00
6538;DHT22;3302;52.508;13.454;2023-02-28T10:06:58;4.40;52.70
6538;DHT22;3302;52.508;13.454;2023-02-28T10:09:26;4.40;51.70
6538;DHT22;3302;52.508;13.454;2023-02-28T10:11:56;4.30;52.10
6538;DHT22;3302;52.508;13.454;2023-02-28T10:14:28;4.50;52.00
6538;DHT22;3302;52.508;13.454;2023-02-28T10:17:15;4.70;51.80
6538;DHT22;3302;52.508;13.454;2023-02-28T10:19:51;4.70;50.90
6538;DHT22;3302;52.508;13.454;2023-02-28T10:22:26;4.70;51.20
6538;DHT22;3302;52.508;13.454;2023-02-28T10:24:55;4.90;51.50
6538;DHT22;3302;52.508;13.454;2023-02-28T10:27:32;4.90;51.60
6538;DHT22;3302;52.508;13.454;2023-02-28T10:30:00;4.80;50.80
6538;DHT22;3302;52.508;13.454;2023-02-28T10:32:32;4.60;49.80
6538;DHT22;3302;52.508;13.454;2023-02-28T10:35:21;4.50;50.50
6538;DHT22;3302;52.508;13.454;2023-02-28T10:37:49;4.30;50.60
6538;DHT22;3302;52.508;13.454;2023-02-28T10:45:31;4.80;50.50
6538;DHT22;3302;52.508;13.454;2023-02-28T10:50:55;5.00;50.80
6538;DHT22;3302;52.508;13.454;2023-02-28T11:01:16;4.90;49.80
6538;DHT22;3302;52.508;13.454;2023-02-28T11:03:42;5.00;50.40
6538;DHT22;3302;52.508;13.454;2023-02-28T11:06:15;5.30;50.30
6538;DHT22;3302;52.508;13.454;2023-02-28T11:08:50;5.30;50.70
6538;DHT22;3302;52.508;13.454;2023-02-28T11:11:17;5.10;50.10
6538;DHT22;3302;52.508;13.454;2023-02-28T11:13:45;5.00;50.40
6538;DHT22;3302;52.508;13.454;2023-02-28T11:16:13;5.10;50.40
6538;DHT22;3302;52.508;13.454;2023-02-28T11:18:53;5.20;50.80
6538;DHT22;3302;52.508;13.454;2023-02-28T11:21:32;5.30;50.80
6538;DHT22;3302;52.508;13.454;2023-02-28T11:26:53;5.60;50.30
6538;DHT22;3302;52.508;13.454;2023-02-28T11:29:21;5.60;51.00
6538;DHT22;3302;52.508;13.454;2023-02-28T11:34:36;5.50;50.40
6538;DHT22;3302;52.508;13.454;2023-02-28T11:37:04;5.10;49.60
6538;DHT22;3302;52.508;13.454;2023-02-28T11:39:33;5.20;49.90
6538;DHT22;3302;52.508;13.454;2023-02-28T11:42:15;5.10;50.60
6538;DHT22;3302;52.508;13.454;2023-02-28T11:47:59;5.30;50.70
6538;DHT22;3302;52.508;13.454;2023-02-28T11:59:34;5.70;50.80
6538;DHT22;3302;52.508;13.454;2023-02-28T12:02:20;5.60;50.50
6538;DHT22;3302;52.508;13.454;2023-02-28T12:04:58;5.40;50.10
6538;DHT22;3302;52.508;13.454;2023-02-28T12:13:11;5.70;50.50
6538;DHT22;3302;52.508;13.454;2023-02-28T12:16:00;5.80;50.20
6538;DHT22;3302;52.508;13.454;2023-02-28T12:26:53;5.50;49.80
6538;DHT22;3302;52.508;13.454;2023-02-28T12:29:28;5.70;50.20
6538;DHT22;3302;52.508;13.454;2023-02-28T12:32:33;5.60;50.40
6538;DHT22;3302;52.508;13.454;2023-02-28T12:37:46;5.40;50.10
6538;DHT22;3302;52.508;13.454;2023-02-28T12:40:20;5.50;50.50
6538;DHT22;3302;52.508;13.454;2023-02-28T12:42:50;5.30;50.10
6538;DHT22;3302;52.508;13.454;2023-02-28T12:45:31;5.70;50.40
6538;DHT22;3302;52.508;13.454;2023-02-28T12:48:04;5.60;49.20
6538;DHT22;3302;52.508;13.454;2023-02-28T12:50:32;5.40;48.60
6538;DHT22;3302;52.508;13.454;2023-02-28T12:53:25;5.50;48.90
6538;DHT22;3302;52.508;13.454;2023-02-28T12:56:35;5.60;49.10
6538;DHT22;3302;52.508;13.454;2023-02-28T12:59:24;5.40;50.60
6538;DHT22;3302;52.508;13.454;2023-02-28T13:02:01;5.70;48.90
6538;DHT22;3302;52.508;13.454;2023-02-28T13:10:47;5.40;49.10
6538;DHT22;3302;52.508;13.454;2023-02-28T13:13:22;5.40;48.90
6538;DHT22;3302;52.508;13.454;2023-02-28T13:16:04;5.50;49.20
6538;DHT22;3302;52.508;13.454;2023-02-28T13:18:42;5.50;49.20
6538;DHT22;3302;52.508;13.454;2023-02-28T13:21:26;5.50;49.80
6538;DHT22;3302;52.508;13.454;2023-02-28T13:29:27;5.40;50.00
6538;DHT22;3302;52.508;13.454;2023-02-28T13:34:34;5.60;49.30
6538;DHT22;3302;52.508;13.454;2023-02-28T13:39:58;5.60;50.10
6538;DHT22;3302;52.508;13.454;2023-02-28T13:48:30;5.70;49.70
6538;DHT22;3302;52.508;13.454;2023-02-28T13:50:37;5.70;49.30
6538;DHT22;3302;52.508;13.454;2023-02-28T14:01:48;5.50;48.70
6538;DHT22;3302;52.508;13.454;2023-02-28T14:07:01;5.50;49.10
6538;DHT22;3302;52.508;13.454;2023-02-28T14:09:34;5.50;48.60
6538;DHT22;3302;52.508;13.454;2023-02-28T14:15:26;5.40;49.00
6538;DHT22;3302;52.508;13.454;2023-02-28T14:17:53;5.50;49.80
6538;DHT22;3302;52.508;13.454;2023-02-28T14:20:20;5.50;48.90
6538;DHT22;3302;52.508;13.454;2023-02-28T14:31:29;5.70;49.20
6538;DHT22;3302;52.508;13.454;2023-02-28T14:35:02;5.50;48.80
6538;DHT22;3302;52.508;13.454;2023-02-28T14:37:13;5.60;48.40
6538;DHT22;3302;52.508;13.454;2023-02-28T14:39:41;5.60;48.40
6538;DHT22;3302;52.508;13.454;2023-02-28T14:42:35;5.60;48.10
6538;DHT22;3302;52.508;13.454;2023-02-28T14:45:04;5.70;48.20
6538;DHT22;3302;52.508;13.454;2023-02-28T14:47:34;5.70;48.00
6538;DHT22;3302;52.508;13.454;2023-02-28T14:50:02;5.70;48.30
6538;DHT22;3302;52.508;13.454;2023-02-28T14:52:31;5.60;48.00
6538;DHT22;3302;52.508;13.454;2023-02-28T14:55:14;5.90;48.90
6538;DHT22;3302;52.508;13.454;2023-02-28T14:57:50;6.10;48.50
6538;DHT22;3302;52.508;13.454;2023-02-28T15:00:29;5.90;48.80
6538;DHT22;3302;52.508;13.454;2023-02-28T15:02:56;6.20;48.40
6538;DHT22;3302;52.508;13.454;2023-02-28T15:05:31;6.50;48.60
6538;DHT22;3302;52.508;13.454;2023-02-28T15:08:14;6.50;47.40
6538;DHT22;3302;52.508;13.454;2023-02-28T15:10:43;6.70;47.40
6538;DHT22;3302;52.508;13.454;2023-02-28T15:13:14;7.30;46.20
6538;DHT22;3302;52.508;13.454;2023-02-28T15:15:53;7.50;46.50
6538;DHT22;3302;52.508;13.454;2023-02-28T15:21:38;7.90;45.20
6538;DHT22;3302;52.508;13.454;2023-02-28T15:27:00;7.90;44.30
6538;DHT22;3302;52.508;13.454;2023-02-28T15:29:28;7.60;43.20
6538;DHT22;3302;52.508;13.454;2023-02-28T15:34:27;7.50;44.80
6538;DHT22;3302;52.508;13.454;2023-02-28T15:36:55;7.50;45.50
6538;DHT22;3302;52.508;13.454;2023-02-28T15:39:26;7.30;45.40
6538;DHT22;3302;52.508;13.454;2023-02-28T15:42:20;6.70;45.20
6538;DHT22;3302;52.508;13.454;2023-02-28T15:44:47;6.20;47.40
6538;DHT22;3302;52.508;13.454;2023-02-28T15:47:21;6.60;46.60
6538;DHT22;3302;52.508;13.454;2023-02-28T15:49:53;6.70;47.40
6538;DHT22;3302;52.508;13.454;2023-02-28T15:52:22;6.60;47.30
6538;DHT22;3302;52.508;13.454;2023-02-28T15:54:49;6.40;48.10
6538;DHT22;3302;52.508;13.454;2023-02-28T15:57:22;6.10;48.40
6538;DHT22;3302;52.508;13.454;2023-02-28T15:59:55;6.20;48.60
6538;DHT22;3302;52.508;13.454;2023-02-28T16:02:38;6.00;49.10
6538;DHT22;3302;52.508;13.454;2023-02-28T16:07:35;6.00;48.70
6538;DHT22;3302;52.508;13.454;2023-02-28T16:10:01;5.90;48.90
6538;DHT22;3302;52.508;13.454;2023-02-28T16:12:32;5.90;49.60
6538;DHT22;3302;52.508;13.454;2023-02-28T16:15:07;5.80;50.00
6538;DHT22;3302;52.508;13.454;2023-02-28T16:17:35;5.60;49.00
6538;DHT22;3302;52.508;13.454;2023-02-28T16:20:39;5.50;50.50
6538;DHT22;3302;52.508;13.454;2023-02-28T16:22:58;5.50;49.40
6538;DHT22;3302;52.508;13.454;2023-02-28T16:25:42;5.40;49.80
6538;DHT22;3302;52.508;13.454;2023-02-28T16:28:30;5.40;51.20
6538;DHT22;3302;52.508;13.454;2023-02-28T16:31:00;5.40;51.00
6538;DHT22;3302;52.508;13.454;2023-02-28T16:33:28;5.40;50.90
6538;DHT22;3302;52.508;13.454;2023-02-28T16:35:54;5.40;51.40
6538;DHT22;3302;52.508;13.454;2023-02-28T16:38:20;5.40;50.90
6538;DHT22;3302;52.508;13.454;2023-02-28T16:40:49;5.20;50.80
6538;DHT22;3302;52.508;13.454;2023-02-28T16:43:18;5.20;52.10
6538;DHT22;3302;52.508;13.454;2023-02-28T16:45:46;5.20;51.70
6538;DHT22;3302;52.508;13.454;2023-02-28T16:48:14;5.10;51.40
6538;DHT22;3302;52.508;13.454;2023-02-28T16:50:41;5.10;52.10
6538;DHT22;3302;52.508;13.454;2023-02-28T16:53:07;5.10;52.20
6538;DHT22;3302;52.508;13.454;2023-02-28T16:55:34;5.00;51.30
6538;DHT22;3302;52.508;13.454;2023-02-28T16:58:01;5.00;51.80
6538;DHT22;3302;52.508;13.454;2023-02-28T17:00:29;5.00;52.20
6538;DHT22;3302;52.508;13.454;2023-02-28T17:02:56;5.00;52.60
6538;DHT22;3302;52.508;13.454;2023-02-28T17:05:23;5.00;52.90
6538;DHT22;3302;52.508;13.454;2023-02-28T17:07:49;4.90;52.60
6538;DHT22;3302;52.508;13.454;2023-02-28T17:10:18;4.90;52.60
6538;DHT22;3302;52.508;13.454;2023-02-28T17:12:44;4.80;52.30
6538;DHT22;3302;52.508;13.454;2023-02-28T17:15:12;4.70;52.90
6538;DHT22;3302;52.508;13.454;2023-02-28T17:17:38;4.60;53.00
6538;DHT22;3302;52.508;13.454;2023-02-28T17:20:04;4.70;53.60
6538;DHT22;3302;52.508;13.454;2023-02-28T17:22:31;4.70;53.70
6538;DHT22;3302;52.508;13.454;2023-02-28T17:24:57;4.70;53.70
6538;DHT22;3302;52.508;13.454;2023-02-28T17:27:24;4.50;53.40
6538;DHT22;3302;52.508;13.454;2023-02-28T17:29:50;4.60;53.90
6538;DHT22;3302;52.508;13.454;2023-02-28T17:32:16;4.50;54.20
6538;DHT22;3302;52.508;13.454;2023-02-28T17:34:43;4.50;54.80
6538;DHT22;3302;52.508;13.454;2023-02-28T17:37:09;4.50;54.80
6538;DHT22;3302;52.508;13.454;2023-02-28T17:39:35;4.50;54.80
6538;DHT22;3302;52.508;13.454;2023-02-28T17:42:01;4.40;55.30
6538;DHT22;3302;52.508;13.454;2023-02-28T17:44:27;4.40;55.60
6538;DHT22;3302;52.508;13.454;2023-02-28T17:46:54;4.40;55.80
6538;DHT22;3302;52.508;13.454;2023-02-28T17:49:21;4.30;55.80
6538;DHT22;3302;52.508;13.454;2023-02-28T17:51:47;4.20;56.10
6538;DHT22;3302;52.508;13.454;2023-02-28T17:54:13;4.20;56.20
6538;DHT22;3302;52.508;13.454;2023-02-28T17:56:40;4.10;56.50
6538;DHT22;3302;52.508;13.454;2023-02-28T17:59:08;4.20;56.60
6538;DHT22;3302;52.508;13.454;2023-02-28T18:01:34;4.20;56.80
6538;DHT22;3302;52.508;13.454;2023-02-28T18:04:00;4.10;56.40
6538;DHT22;3302;52.508;13.454;2023-02-28T18:06:36;4.00;56.80
6538;DHT22;3302;52.508;13.454;2023-02-28T18:09:16;3.90;56.30
6538;DHT22;3302;52.508;13.454;2023-02-28T18:11:42;3.90;57.20
6538;DHT22;3302;52.508;13.454;2023-02-28T18:14:09;4.00;57.40
6538;DHT22;3302;52.508;13.454;2023-02-28T18:16:35;4.00;57.80
6538;DHT22;3302;52.508;13.454;2023-02-28T18:19:00;3.90;57.50
6538;DHT22;3302;52.508;13.454;2023-02-28T18:21:29;3.90;57.40
6538;DHT22;3302;52.508;13.454;2023-02-28T18:23:56;3.90;57.40
6538;DHT22;3302;52.508;13.454;2023-02-28T18:26:22;3.80;58.00
6538;DHT22;3302;52.508;13.454;2023-02-28T18:28:48;3.70;57.60
6538;DHT22;3302;52.508;13.454;2023-02-28T18:31:17;3.80;57.90
6538;DHT22;3302;52.508;13.454;2023-02-28T18:33:48;3.70;58.20
6538;DHT22;3302;52.508;13.454;2023-02-28T18:36:14;3.60;58.60
6538;DHT22;3302;52.508;13.454;2023-02-28T18:38:40;3.60;58.90
6538;DHT22;3302;52.508;13.454;2023-02-28T18:41:08;3.60;59.40
6538;DHT22;3302;52.508;13.454;2023-02-28T18:43:35;3.60;59.60
6538;DHT22;3302;52.508;13.454;2023-02-28T18:46:11;3.60;60.00
6538;DHT22;3302;52.508;13.454;2023-02-28T18:48:37;3.60;59.90
6538;DHT22;3302;52.508;13.454;2023-02-28T18:51:19;3.50;60.20